createdAt,value
2023-03-10T00:00:48.912Z,0.00
2023-03-10T00:01:48.880Z,0.00
2023-03-10T00:02:48.907Z,0.00
2023-03-10T00:03:48.858Z,0.00
2023-03-10T00:04:48.858Z,0.00
2023-03-10T00:05:48.898Z,0.00
2023-03-10T00:06:48.840Z,0.00
2023-03-10T00:07:48.810Z,0.00
2023-03-10T00:08:48.808Z,0.00
2023-03-10T00:09:48.913Z,0.00
2023-03-10T00:10:48.775Z,0.00
2023-03-10T00:11:48.804Z,0.00
2023-03-10T00:12:48.761Z,0.00
2023-03-10T00:13:48.771Z,0.00
2023-03-10T00:14:48.740Z,0.00
2023-03-10T00:15:48.750Z,0.00
2023-03-10T00:16:48.720Z,0.00
2023-03-10T00:17:48.743Z,0.00
2023-03-10T00:18:48.717Z,0.00
2023-03-10T00:19:48.697Z,0.00
2023-03-10T00:20:48.668Z,0.00
2023-03-10T00:21:48.666Z,0.00
2023-03-10T00:22:48.670Z,0.00
2023-03-10T00:23:48.867Z,0.00
2023-03-10T00:24:48.632Z,0.00
2023-03-10T00:25:48.642Z,0.00
2023-03-10T00:26:48.611Z,0.00
2023-03-10T00:27:48.601Z,0.00
2023-03-10T00:28:48.581Z,0.00
2023-03-10T00:29:48.572Z,0.00
2023-03-10T00:30:48.680Z,0.00
2023-03-10T00:31:48.556Z,0.00
2023-03-10T00:32:48.571Z,0.00
2023-03-10T00:33:48.552Z,0.00
2023-03-10T00:34:48.552Z,0.00
2023-03-10T00:35:48.622Z,0.00
2023-03-10T00:36:48.514Z,0.00
2023-03-10T00:37:48.489Z,0.00
2023-03-10T00:38:48.520Z,0.00
2023-03-10T00:39:48.473Z,0.00
2023-03-10T00:40:48.471Z,0.00
2023-03-10T00:41:48.478Z,0.00
2023-03-10T00:42:48.560Z,0.00
2023-03-10T00:43:48.442Z,0.00
2023-03-10T00:44:48.416Z,0.00
2023-03-10T00:45:48.419Z,0.00
2023-03-10T00:46:48.462Z,0.00
2023-03-10T00:47:48.418Z,0.00
2023-03-10T00:48:48.405Z,0.00
2023-03-10T00:49:48.370Z,0.00
2023-03-10T00:50:48.394Z,0.00
2023-03-10T00:51:48.343Z,0.00
2023-03-10T00:52:48.332Z,0.00
2023-03-10T00:53:48.347Z,0.00
2023-03-10T00:54:48.316Z,0.00
2023-03-10T00:55:48.313Z,0.00
2023-03-10T00:56:48.300Z,0.00
2023-03-10T00:57:48.284Z,0.00
2023-03-10T00:58:48.293Z,0.00
2023-03-10T00:59:50.632Z,0.00
2023-03-10T01:00:48.256Z,0.00
2023-03-10T01:01:48.274Z,0.00
2023-03-10T01:02:48.251Z,0.00
2023-03-10T01:03:48.225Z,0.00
2023-03-10T01:04:48.362Z,0.00
2023-03-10T01:05:48.202Z,0.00
2023-03-10T01:06:48.200Z,0.00
2023-03-10T01:07:48.169Z,0.00
2023-03-10T01:08:48.165Z,0.00
2023-03-10T01:09:48.184Z,0.00
2023-03-10T01:10:48.139Z,0.00
2023-03-10T01:11:48.140Z,0.00
2023-03-10T01:12:48.129Z,0.00
2023-03-10T01:13:48.117Z,0.00
2023-03-10T01:14:48.103Z,0.00
2023-03-10T01:15:48.166Z,0.00
2023-03-10T01:16:48.088Z,0.00
2023-03-10T01:17:48.061Z,0.00
2023-03-10T01:18:48.064Z,0.00
2023-03-10T01:19:48.050Z,0.00
2023-03-10T01:20:48.057Z,0.00
2023-03-10T01:21:48.032Z,0.00
2023-03-10T01:22:48.024Z,0.00
2023-03-10T01:23:47.997Z,0.00
2023-03-10T01:24:48.014Z,0.00
2023-03-10T01:25:47.989Z,0.00
2023-03-10T01:26:47.969Z,0.00
2023-03-10T01:27:47.982Z,0.00
2023-03-10T01:28:47.960Z,0.00
2023-03-10T01:29:47.947Z,0.00
2023-03-10T01:30:47.962Z,0.00
2023-03-10T01:31:48.004Z,0.00
2023-03-10T01:32:48.043Z,0.00
2023-03-10T01:33:47.892Z,0.00
2023-03-10T01:34:47.889Z,0.00
2023-03-10T01:35:47.948Z,0.00
2023-03-10T01:36:47.887Z,0.00
2023-03-10T01:37:47.847Z,0.00
2023-03-10T01:38:47.866Z,0.00
2023-03-10T01:39:47.873Z,0.00
2023-03-10T01:40:47.817Z,0.00
2023-03-10T01:41:47.806Z,0.00
2023-03-10T01:42:47.806Z,0.00
2023-03-10T01:43:47.784Z,0.00
2023-03-10T01:44:47.771Z,0.00
2023-03-10T01:45:47.768Z,0.00
2023-03-10T01:46:47.828Z,0.00
2023-03-10T01:47:47.748Z,0.00
2023-03-10T01:48:47.728Z,0.00
2023-03-10T01:49:47.718Z,0.00
2023-03-10T01:50:47.715Z,0.00
2023-03-10T01:51:47.738Z,0.00
2023-03-10T01:52:47.710Z,0.00
2023-03-10T01:53:47.682Z,0.00
2023-03-10T01:54:47.676Z,0.00
2023-03-10T01:55:47.652Z,0.00
2023-03-10T01:56:47.643Z,0.00
2023-03-10T01:57:47.641Z,0.00
2023-03-10T01:58:47.620Z,0.00
2023-03-10T01:59:47.620Z,0.00
2023-03-10T02:00:47.677Z,0.00
2023-03-10T02:01:47.655Z,0.00
2023-03-10T02:02:47.574Z,0.00
2023-03-10T02:03:47.588Z,0.00
2023-03-10T02:04:47.575Z,0.00
2023-03-10T02:05:47.566Z,0.00
2023-03-10T02:06:47.540Z,0.00
2023-03-10T02:07:47.529Z,0.00
2023-03-10T02:08:47.646Z,0.00
2023-03-10T02:09:47.697Z,0.00
2023-03-10T02:10:47.508Z,0.00
2023-03-10T02:11:47.483Z,0.00
2023-03-10T02:12:47.475Z,0.00
2023-03-10T02:13:47.494Z,0.00
2023-03-10T02:14:47.689Z,0.00
2023-03-10T02:15:47.436Z,0.00
2023-03-10T02:16:47.553Z,0.00
2023-03-10T02:17:47.487Z,0.00
2023-03-10T02:18:47.407Z,0.00
2023-03-10T02:19:47.439Z,0.00
2023-03-10T02:20:47.386Z,0.00
2023-03-10T02:21:47.385Z,0.00
2023-03-10T02:22:47.417Z,0.00
2023-03-10T02:23:58.757Z,0.00
2023-03-10T02:24:48.344Z,0.00
2023-03-10T02:25:47.341Z,0.00
2023-03-10T02:26:47.345Z,0.00
2023-03-10T02:27:47.308Z,0.00
2023-03-10T02:28:47.317Z,0.00
2023-03-10T02:29:58.342Z,0.00
2023-03-10T02:30:48.278Z,0.00
2023-03-10T02:31:47.323Z,0.00
2023-03-10T02:32:47.329Z,0.00
2023-03-10T02:33:47.248Z,0.00
2023-03-10T02:34:47.264Z,0.00
2023-03-10T02:35:47.272Z,0.00
2023-03-10T02:36:47.220Z,0.00
2023-03-10T02:37:47.209Z,0.00
2023-03-10T02:38:47.191Z,0.00
2023-03-10T02:39:47.178Z,0.00
2023-03-10T02:40:47.189Z,0.00
2023-03-10T02:41:47.193Z,0.00
2023-03-10T02:42:47.164Z,0.00
2023-03-10T02:43:47.150Z,0.00
2023-03-10T02:44:47.135Z,0.00
2023-03-10T02:45:47.270Z,0.00
2023-03-10T02:46:47.110Z,0.00
2023-03-10T02:47:47.099Z,0.00
2023-03-10T02:48:47.098Z,0.00
2023-03-10T02:49:47.080Z,0.00
2023-03-10T02:50:47.058Z,0.00
2023-03-10T02:51:47.058Z,0.00
2023-03-10T02:52:47.044Z,0.00
2023-03-10T02:53:47.027Z,0.00
2023-03-10T02:54:47.035Z,0.00
2023-03-10T02:55:47.093Z,0.00
2023-03-10T02:56:47.091Z,0.00
2023-03-10T02:57:47.052Z,0.00
2023-03-10T02:58:47.346Z,0.00
2023-03-10T02:59:46.964Z,0.00
2023-03-10T03:00:46.973Z,0.00
2023-03-10T03:01:46.939Z,0.00
2023-03-10T03:02:46.933Z,0.00
2023-03-10T03:03:47.105Z,0.00
2023-03-10T03:04:46.919Z,0.00
2023-03-10T03:05:46.905Z,0.00
2023-03-10T03:06:46.885Z,0.00
2023-03-10T03:07:46.887Z,0.00
2023-03-10T03:08:46.873Z,0.00
2023-03-10T03:09:46.871Z,0.00
2023-03-10T03:10:46.854Z,0.00
2023-03-10T03:11:46.866Z,0.00
2023-03-10T03:12:46.834Z,0.00
2023-03-10T03:13:46.840Z,0.00
2023-03-10T03:14:46.816Z,0.00
2023-03-10T03:15:46.790Z,0.00
2023-03-10T03:16:46.945Z,0.00
2023-03-10T03:17:46.783Z,0.00
2023-03-10T03:18:46.781Z,0.00
2023-03-10T03:19:46.764Z,0.00
2023-03-10T03:20:46.756Z,0.00
2023-03-10T03:21:46.724Z,0.00
2023-03-10T03:22:46.716Z,0.00
2023-03-10T03:23:46.729Z,0.00
2023-03-10T03:24:46.696Z,0.00
2023-03-10T03:25:46.680Z,0.00
2023-03-10T03:26:46.724Z,0.00
2023-03-10T03:27:46.669Z,0.00
2023-03-10T03:28:46.678Z,0.00
2023-03-10T03:29:46.656Z,0.00
2023-03-10T03:30:46.680Z,0.00
2023-03-10T03:31:46.674Z,0.00
2023-03-10T03:32:46.700Z,0.00
2023-03-10T03:33:46.591Z,0.00
2023-03-10T03:34:46.586Z,0.00
2023-03-10T03:35:46.672Z,0.00
2023-03-10T03:36:46.558Z,0.00
2023-03-10T03:37:46.547Z,0.00
2023-03-10T03:38:46.548Z,0.00
2023-03-10T03:39:46.623Z,0.00
2023-03-10T03:40:46.547Z,0.00
2023-03-10T03:41:46.512Z,0.00
2023-03-10T03:42:46.491Z,0.00
2023-03-10T03:43:46.504Z,0.00
2023-03-10T03:44:46.471Z,0.00
2023-03-10T03:45:46.538Z,0.00
2023-03-10T03:46:46.489Z,0.00
2023-03-10T03:47:46.471Z,0.00
2023-03-10T03:48:46.432Z,0.00
2023-03-10T03:49:46.417Z,0.00
2023-03-10T03:50:46.413Z,0.00
2023-03-10T03:51:46.422Z,0.00
2023-03-10T03:52:46.395Z,0.00
2023-03-10T03:53:46.390Z,0.00
2023-03-10T03:54:46.373Z,0.00
2023-03-10T03:55:46.387Z,0.00
2023-03-10T03:56:46.344Z,0.00
2023-03-10T03:57:46.349Z,0.00
2023-03-10T03:58:46.328Z,0.00
2023-03-10T03:59:46.311Z,0.00
2023-03-10T04:00:46.304Z,0.00
2023-03-10T04:01:46.289Z,0.00
2023-03-10T04:02:46.551Z,0.00
2023-03-10T04:03:46.371Z,0.00
2023-03-10T04:04:46.259Z,0.00
2023-03-10T04:05:46.246Z,0.00
2023-03-10T04:06:46.245Z,0.00
2023-03-10T04:07:46.240Z,0.00
2023-03-10T04:08:46.228Z,0.00
2023-03-10T04:09:47.173Z,0.00
2023-03-10T04:10:46.196Z,0.00
2023-03-10T04:11:46.192Z,0.00
2023-03-10T04:12:46.180Z,0.00
2023-03-10T04:13:46.203Z,0.00
2023-03-10T04:14:46.154Z,0.00
2023-03-10T04:15:46.190Z,0.00
2023-03-10T04:16:46.136Z,0.00
2023-03-10T04:17:46.148Z,0.00
2023-03-10T04:18:46.172Z,0.00
2023-03-10T04:19:54.205Z,0.00
2023-03-10T04:20:47.096Z,0.00
2023-03-10T04:21:46.085Z,0.00
2023-03-10T04:22:46.087Z,0.00
2023-03-10T04:23:46.074Z,0.00
2023-03-10T04:24:46.044Z,0.00
2023-03-10T04:25:46.071Z,0.00
2023-03-10T04:26:46.040Z,0.00
2023-03-10T04:27:46.018Z,0.00
2023-03-10T04:28:46.001Z,0.00
2023-03-10T04:29:46.010Z,0.00
2023-03-10T04:30:46.109Z,0.00
2023-03-10T04:31:55.836Z,0.00
2023-03-10T04:32:49.155Z,0.00
2023-03-10T04:33:45.964Z,0.00
2023-03-10T04:34:45.996Z,0.00
2023-03-10T04:35:45.991Z,0.00
2023-03-10T04:36:45.919Z,0.00
2023-03-10T04:37:45.912Z,0.00
2023-03-10T04:38:45.893Z,0.00
2023-03-10T04:39:45.887Z,0.00
2023-03-10T04:40:45.901Z,0.00
2023-03-10T04:41:45.869Z,0.00
2023-03-10T04:42:53.706Z,0.00
2023-03-10T04:43:47.774Z,0.00
2023-03-10T04:44:45.838Z,0.00
2023-03-10T04:45:45.850Z,0.00
2023-03-10T04:46:45.804Z,0.00
2023-03-10T04:47:45.800Z,0.00
2023-03-10T04:48:45.788Z,0.00
2023-03-10T04:49:45.776Z,0.00
2023-03-10T04:50:45.804Z,0.00
2023-03-10T04:51:45.758Z,0.00
2023-03-10T04:52:45.742Z,0.00
2023-03-10T04:53:45.737Z,0.00
2023-03-10T04:54:45.733Z,0.00
2023-03-10T04:55:45.739Z,0.00
2023-03-10T04:56:45.712Z,0.00
2023-03-10T04:57:45.714Z,0.00
2023-03-10T04:58:45.682Z,0.00
2023-03-10T04:59:45.687Z,0.00
2023-03-10T05:01:01.917Z,0.00
2023-03-10T05:01:46.728Z,0.00
2023-03-10T05:02:45.657Z,0.00
2023-03-10T05:03:45.634Z,0.00
2023-03-10T05:04:45.757Z,0.00
2023-03-10T05:05:45.619Z,0.00
2023-03-10T05:06:45.704Z,0.00
2023-03-10T05:07:45.582Z,0.00
2023-03-10T05:08:45.595Z,0.00
2023-03-10T05:09:45.565Z,0.00
2023-03-10T05:10:45.570Z,0.00
2023-03-10T05:11:45.548Z,0.00
2023-03-10T05:12:45.536Z,0.00
2023-03-10T05:13:45.521Z,0.00
2023-03-10T05:14:45.528Z,0.00
2023-03-10T05:15:45.550Z,0.00
2023-03-10T05:16:45.487Z,0.00
2023-03-10T05:17:47.542Z,0.00
2023-03-10T05:18:45.499Z,0.00
2023-03-10T05:19:45.449Z,0.00
2023-03-10T05:20:45.438Z,0.00
2023-03-10T05:21:45.444Z,0.00
2023-03-10T05:22:45.453Z,0.00
2023-03-10T05:23:45.404Z,0.00
2023-03-10T05:24:45.413Z,0.00
2023-03-10T05:25:45.393Z,0.00
2023-03-10T05:26:45.383Z,0.00
2023-03-10T05:27:45.386Z,0.00
2023-03-10T05:28:45.364Z,0.00
2023-03-10T05:29:45.354Z,0.00
2023-03-10T05:30:45.348Z,0.00
2023-03-10T05:31:45.382Z,0.00
2023-03-10T05:32:45.391Z,0.00
2023-03-10T05:33:45.302Z,0.00
2023-03-10T05:34:45.302Z,0.00
2023-03-10T05:35:45.336Z,0.00
2023-03-10T05:36:45.275Z,0.00
2023-03-10T05:37:45.264Z,0.00
2023-03-10T05:38:45.281Z,0.00
2023-03-10T05:39:45.238Z,0.00
2023-03-10T05:40:45.228Z,0.00
2023-03-10T05:41:45.217Z,0.00
2023-03-10T05:42:45.210Z,0.00
2023-03-10T05:43:45.192Z,0.00
2023-03-10T05:44:45.206Z,0.00
2023-03-10T05:45:45.189Z,0.00
2023-03-10T05:46:45.228Z,0.00
2023-03-10T05:47:45.156Z,0.00
2023-03-10T05:48:45.137Z,0.00
2023-03-10T05:49:45.133Z,0.00
2023-03-10T05:50:45.125Z,0.00
2023-03-10T05:51:45.133Z,0.00
2023-03-10T05:52:45.095Z,0.00
2023-03-10T05:53:45.095Z,0.00
2023-03-10T05:54:45.116Z,0.00
2023-03-10T05:55:45.096Z,0.00
2023-03-10T05:56:45.076Z,0.00
2023-03-10T05:57:45.083Z,0.00
2023-03-10T05:58:45.033Z,0.00
2023-03-10T05:59:45.027Z,0.00
2023-03-10T06:00:45.036Z,0.00
2023-03-10T06:01:45.009Z,0.00
2023-03-10T06:02:45.052Z,0.00
2023-03-10T06:03:45.226Z,0.00
2023-03-10T06:04:45.099Z,0.00
2023-03-10T06:05:44.968Z,0.00
2023-03-10T06:06:44.980Z,0.00
2023-03-10T06:07:44.933Z,0.00
2023-03-10T06:08:44.965Z,0.00
2023-03-10T06:09:44.926Z,5.62
2023-03-10T06:10:44.935Z,5.62
2023-03-10T06:11:44.916Z,5.62
2023-03-10T06:12:44.883Z,5.62
2023-03-10T06:13:44.892Z,5.62
2023-03-10T06:14:44.884Z,5.62
2023-03-10T06:15:44.866Z,5.62
2023-03-10T06:16:44.923Z,5.62
2023-03-10T06:17:44.831Z,5.62
2023-03-10T06:18:44.816Z,5.62
2023-03-10T06:19:44.806Z,5.62
2023-03-10T06:20:44.823Z,5.62
2023-03-10T06:21:44.788Z,5.62
2023-03-10T06:22:44.777Z,5.62
2023-03-10T06:23:44.782Z,11.25
2023-03-10T06:24:44.760Z,5.62
2023-03-10T06:25:44.752Z,5.62
2023-03-10T06:26:44.771Z,5.62
2023-03-10T06:27:44.727Z,5.62
2023-03-10T06:28:44.716Z,5.62
2023-03-10T06:29:44.707Z,5.62
2023-03-10T06:30:44.699Z,5.62
2023-03-10T06:31:44.723Z,5.62
2023-03-10T06:32:44.783Z,5.62
2023-03-10T06:33:44.688Z,11.25
2023-03-10T06:34:44.652Z,5.62
2023-03-10T06:35:44.763Z,5.62
2023-03-10T06:36:44.628Z,5.62
2023-03-10T06:37:44.623Z,5.62
2023-03-10T06:38:44.637Z,11.25
2023-03-10T06:39:44.602Z,11.25
2023-03-10T06:40:44.596Z,11.25
2023-03-10T06:41:44.593Z,5.62
2023-03-10T06:42:44.593Z,5.62
2023-03-10T06:43:44.553Z,11.25
2023-03-10T06:44:44.574Z,16.88
2023-03-10T06:45:44.580Z,11.25
2023-03-10T06:46:44.546Z,11.25
2023-03-10T06:47:44.740Z,11.25
2023-03-10T06:48:44.501Z,11.25
2023-03-10T06:49:44.530Z,11.25
2023-03-10T06:50:44.538Z,11.25
2023-03-10T06:51:44.491Z,11.25
2023-03-10T06:52:44.465Z,11.25
2023-03-10T06:53:44.490Z,11.25
2023-03-10T06:54:44.448Z,11.25
2023-03-10T06:55:44.488Z,11.25
2023-03-10T06:56:44.423Z,11.25
2023-03-10T06:57:44.413Z,11.25
2023-03-10T06:58:44.414Z,11.25
2023-03-10T06:59:44.444Z,11.25
2023-03-10T07:00:44.421Z,5.62
2023-03-10T07:01:44.382Z,5.62
2023-03-10T07:02:44.359Z,5.62
2023-03-10T07:03:44.342Z,5.62
2023-03-10T07:04:44.604Z,5.62
2023-03-10T07:05:44.369Z,11.25
2023-03-10T07:06:44.323Z,11.25
2023-03-10T07:07:44.309Z,11.25
2023-03-10T07:08:44.335Z,11.25
2023-03-10T07:09:44.315Z,11.25
2023-03-10T07:10:44.279Z,16.88
2023-03-10T07:11:44.250Z,16.88
2023-03-10T07:12:44.254Z,22.50
2023-03-10T07:13:44.241Z,22.50
2023-03-10T07:14:44.247Z,16.88
2023-03-10T07:15:44.256Z,16.88
2023-03-10T07:16:44.260Z,16.88
2023-03-10T07:17:44.193Z,22.50
2023-03-10T07:18:44.184Z,22.50
2023-03-10T07:19:44.191Z,28.12
2023-03-10T07:20:44.171Z,22.50
2023-03-10T07:21:44.178Z,28.12
2023-03-10T07:22:44.141Z,28.12
2023-03-10T07:23:44.121Z,28.12
2023-03-10T07:24:44.116Z,28.12
2023-03-10T07:25:44.098Z,28.12
2023-03-10T07:26:44.128Z,33.75
2023-03-10T07:27:44.107Z,28.12
2023-03-10T07:28:44.075Z,28.12
2023-03-10T07:29:44.065Z,33.75
2023-03-10T07:30:44.761Z,39.38
2023-03-10T07:31:44.048Z,39.38
2023-03-10T07:32:44.236Z,39.38
2023-03-10T07:33:44.015Z,39.38
2023-03-10T07:34:44.003Z,45.00
2023-03-10T07:35:44.050Z,45.00
2023-03-10T07:36:43.988Z,39.38
2023-03-10T07:37:43.994Z,45.00
2023-03-10T07:38:43.962Z,39.38
2023-03-10T07:39:43.986Z,39.38
2023-03-10T07:40:44.786Z,33.75
2023-03-10T07:41:43.974Z,28.12
2023-03-10T07:42:43.944Z,28.12
2023-03-10T07:43:43.924Z,28.12
2023-03-10T07:44:43.945Z,28.12
2023-03-10T07:45:43.897Z,28.12
2023-03-10T07:46:43.892Z,39.38
2023-03-10T07:47:43.877Z,33.75
2023-03-10T07:48:43.926Z,45.00
2023-03-10T07:49:43.888Z,50.62
2023-03-10T07:50:43.839Z,56.25
2023-03-10T07:51:44.066Z,50.62
2023-03-10T07:52:43.853Z,50.62
2023-03-10T07:53:43.894Z,56.25
2023-03-10T07:54:43.801Z,50.62
2023-03-10T07:55:43.799Z,45.00
2023-03-10T07:56:43.778Z,39.38
2023-03-10T07:57:43.777Z,45.00
2023-03-10T07:58:43.771Z,50.62
2023-03-10T07:59:43.751Z,56.25
2023-03-10T08:00:43.766Z,61.88
2023-03-10T08:01:43.724Z,61.88
2023-03-10T08:02:43.730Z,61.88
2023-03-10T08:03:43.730Z,61.88
2023-03-10T08:04:43.868Z,50.62
2023-03-10T08:05:43.679Z,67.50
2023-03-10T08:06:43.685Z,67.50
2023-03-10T08:07:43.697Z,67.50
2023-03-10T08:08:43.655Z,56.25
2023-03-10T08:09:43.747Z,56.25
2023-03-10T08:10:43.639Z,56.25
2023-03-10T08:11:43.621Z,61.88
2023-03-10T08:12:43.623Z,78.75
2023-03-10T08:13:43.642Z,84.38
2023-03-10T08:14:43.598Z,95.62
2023-03-10T08:15:43.640Z,129.38
2023-03-10T08:16:43.582Z,112.50
2023-03-10T08:17:43.566Z,84.38
2023-03-10T08:18:43.596Z,95.62
2023-03-10T08:19:43.541Z,95.62
2023-03-10T08:20:43.532Z,101.25
2023-03-10T08:21:43.503Z,95.62
2023-03-10T08:22:43.509Z,95.62
2023-03-10T08:23:43.509Z,118.12
2023-03-10T08:24:43.476Z,101.25
2023-03-10T08:25:43.466Z,95.62
2023-03-10T08:26:43.449Z,84.38
2023-03-10T08:27:43.465Z,67.50
2023-03-10T08:28:43.459Z,61.88
2023-03-10T08:29:43.438Z,67.50
2023-03-10T08:31:00.894Z,78.75
2023-03-10T08:31:44.485Z,73.12
2023-03-10T08:32:43.758Z,73.12
2023-03-10T08:33:43.393Z,78.75
2023-03-10T08:34:43.463Z,67.50
2023-03-10T08:35:43.395Z,61.88
2023-03-10T08:36:43.363Z,56.25
2023-03-10T08:37:44.055Z,50.62
2023-03-10T08:38:43.322Z,73.12
2023-03-10T08:39:43.313Z,84.38
2023-03-10T08:40:43.313Z,106.88
2023-03-10T08:41:43.304Z,95.62
2023-03-10T08:42:43.291Z,95.62
2023-03-10T08:43:43.264Z,95.62
2023-03-10T08:44:43.258Z,73.12
2023-03-10T08:45:43.248Z,84.38
2023-03-10T08:46:46.334Z,78.75
2023-03-10T08:47:43.244Z,101.25
2023-03-10T08:48:43.272Z,135.00
2023-03-10T08:49:46.316Z,174.38
2023-03-10T08:50:43.266Z,146.25
2023-03-10T08:51:43.193Z,208.12
2023-03-10T08:52:43.182Z,146.25
2023-03-10T08:53:43.170Z,84.38
2023-03-10T08:54:43.163Z,112.50
2023-03-10T08:55:43.167Z,112.50
2023-03-10T08:56:43.167Z,135.00
2023-03-10T08:57:43.129Z,84.38
2023-03-10T08:58:43.115Z,95.62
2023-03-10T08:59:43.102Z,101.25
2023-03-10T09:00:43.096Z,174.38
2023-03-10T09:01:43.168Z,123.75
2023-03-10T09:02:43.122Z,118.12
2023-03-10T09:03:43.068Z,213.75
2023-03-10T09:04:43.061Z,151.88
2023-03-10T09:05:43.039Z,208.12
2023-03-10T09:06:43.046Z,196.88
2023-03-10T09:07:43.092Z,202.50
2023-03-10T09:08:43.023Z,320.62
2023-03-10T09:09:43.003Z,264.38
2023-03-10T09:10:42.990Z,168.75
2023-03-10T09:11:42.984Z,208.12
2023-03-10T09:12:43.018Z,95.62
2023-03-10T09:13:42.970Z,84.38
2023-03-10T09:14:42.944Z,118.12
2023-03-10T09:15:42.932Z,95.62
2023-03-10T09:16:42.953Z,106.88
2023-03-10T09:17:42.947Z,129.38
2023-03-10T09:18:42.926Z,78.75
2023-03-10T09:19:42.891Z,56.25
2023-03-10T09:20:42.890Z,61.88
2023-03-10T09:21:42.872Z,78.75
2023-03-10T09:22:42.877Z,106.88
2023-03-10T09:23:42.856Z,101.25
2023-03-10T09:24:42.838Z,388.12
2023-03-10T09:25:42.823Z,410.62
2023-03-10T09:26:44.670Z,275.62
2023-03-10T09:27:44.831Z,174.38
2023-03-10T09:28:42.810Z,219.38
2023-03-10T09:29:43.764Z,275.62
2023-03-10T09:30:42.786Z,264.38
2023-03-10T09:31:42.818Z,219.38
2023-03-10T09:32:42.764Z,286.88
2023-03-10T09:33:42.739Z,230.62
2023-03-10T09:34:42.728Z,185.62
2023-03-10T09:35:52.513Z,202.50
2023-03-10T09:36:43.699Z,236.25
2023-03-10T09:37:42.729Z,309.38
2023-03-10T09:38:42.707Z,286.88
2023-03-10T09:39:42.686Z,185.62
2023-03-10T09:40:42.663Z,174.38
2023-03-10T09:41:42.655Z,140.62
2023-03-10T09:42:42.645Z,157.50
2023-03-10T09:43:42.655Z,185.62
2023-03-10T09:44:42.668Z,219.38
2023-03-10T09:45:42.620Z,208.12
2023-03-10T09:46:42.621Z,196.88
2023-03-10T09:47:42.590Z,129.38
2023-03-10T09:48:42.580Z,112.50
2023-03-10T09:49:42.554Z,95.62
2023-03-10T09:50:42.574Z,78.75
2023-03-10T09:51:42.545Z,84.38
2023-03-10T09:52:42.615Z,67.50
2023-03-10T09:53:42.521Z,78.75
2023-03-10T09:54:42.525Z,84.38
2023-03-10T09:55:47.843Z,78.75
2023-03-10T09:56:44.330Z,78.75
2023-03-10T09:57:42.502Z,84.38
2023-03-10T09:58:42.471Z,84.38
2023-03-10T09:59:42.478Z,84.38
2023-03-10T10:00:42.466Z,84.38
2023-03-10T10:01:42.450Z,95.62
2023-03-10T10:02:42.419Z,106.88
2023-03-10T10:03:52.184Z,112.50
2023-03-10T10:04:43.498Z,146.25
2023-03-10T10:05:42.401Z,118.12
2023-03-10T10:06:42.405Z,73.12
2023-03-10T10:07:42.389Z,73.12
2023-03-10T10:08:45.002Z,73.12
2023-03-10T10:09:43.401Z,168.75
2023-03-10T10:10:42.347Z,157.50
2023-03-10T10:11:42.340Z,180.00
2023-03-10T10:12:42.327Z,163.12
2023-03-10T10:13:43.859Z,135.00
2023-03-10T10:14:48.106Z,151.88
2023-03-10T10:15:43.280Z,118.12
2023-03-10T10:16:42.349Z,146.25
2023-03-10T10:17:52.344Z,146.25
2023-03-10T10:18:43.417Z,118.12
2023-03-10T10:19:42.238Z,106.88
2023-03-10T10:20:42.229Z,101.25
2023-03-10T10:21:43.088Z,129.38
2023-03-10T10:22:42.234Z,106.88
2023-03-10T10:23:42.184Z,90.00
2023-03-10T10:24:42.201Z,101.25
2023-03-10T10:25:42.628Z,112.50
2023-03-10T10:26:42.183Z,106.88
2023-03-10T10:27:42.145Z,112.50
2023-03-10T10:28:42.155Z,106.88
2023-03-10T10:29:42.137Z,61.88
2023-03-10T10:30:42.124Z,67.50
2023-03-10T10:31:42.104Z,73.12
2023-03-10T10:32:44.398Z,78.75
2023-03-10T10:33:43.680Z,61.88
2023-03-10T10:34:42.135Z,112.50
2023-03-10T10:35:42.184Z,140.62
2023-03-10T10:36:42.051Z,140.62
2023-03-10T10:37:42.033Z,135.00
2023-03-10T10:38:42.034Z,118.12
2023-03-10T10:39:42.021Z,135.00
2023-03-10T10:40:42.033Z,163.12
2023-03-10T10:41:42.009Z,163.12
2023-03-10T10:42:42.003Z,101.25
2023-03-10T10:43:41.976Z,90.00
2023-03-10T10:44:42.017Z,101.25
2023-03-10T10:45:42.031Z,90.00
2023-03-10T10:46:41.946Z,123.75
2023-03-10T10:47:41.943Z,185.62
2023-03-10T10:48:41.938Z,118.12
2023-03-10T10:49:41.923Z,174.38
2023-03-10T10:50:41.919Z,106.88
2023-03-10T10:51:41.912Z,135.00
2023-03-10T10:52:41.891Z,84.38
2023-03-10T10:53:41.878Z,95.62
2023-03-10T10:54:41.905Z,146.25
2023-03-10T10:55:41.862Z,151.88
2023-03-10T10:56:41.844Z,84.38
2023-03-10T10:57:41.844Z,84.38
2023-03-10T10:58:41.844Z,78.75
2023-03-10T10:59:41.811Z,78.75
2023-03-10T11:00:41.799Z,78.75
2023-03-10T11:01:41.846Z,73.12
2023-03-10T11:02:41.796Z,84.38
2023-03-10T11:03:41.767Z,90.00
2023-03-10T11:04:41.763Z,90.00
2023-03-10T11:05:41.757Z,101.25
2023-03-10T11:06:41.728Z,90.00
2023-03-10T11:07:41.747Z,78.75
2023-03-10T11:08:41.713Z,67.50
2023-03-10T11:09:41.712Z,67.50
2023-03-10T11:10:41.709Z,61.88
2023-03-10T11:11:41.701Z,84.38
2023-03-10T11:12:41.684Z,78.75
2023-03-10T11:13:41.655Z,73.12
2023-03-10T11:14:41.672Z,73.12
2023-03-10T11:15:41.722Z,56.25
2023-03-10T11:16:41.626Z,84.38
2023-03-10T11:17:41.640Z,78.75
2023-03-10T11:18:41.608Z,90.00
2023-03-10T11:19:41.601Z,84.38
2023-03-10T11:20:41.584Z,84.38
2023-03-10T11:21:41.573Z,84.38
2023-03-10T11:22:41.580Z,101.25
2023-03-10T11:23:41.554Z,112.50
2023-03-10T11:24:41.548Z,106.88
2023-03-10T11:25:41.534Z,73.12
2023-03-10T11:26:41.512Z,56.25
2023-03-10T11:27:41.517Z,45.00
2023-03-10T11:28:41.524Z,73.12
2023-03-10T11:29:41.545Z,101.25
2023-03-10T11:30:41.533Z,118.12
2023-03-10T11:31:41.478Z,129.38
2023-03-10T11:32:41.547Z,112.50
2023-03-10T11:33:41.472Z,118.12
2023-03-10T11:34:41.459Z,146.25
2023-03-10T11:35:41.476Z,118.12
2023-03-10T11:36:55.017Z,95.62
2023-03-10T11:37:42.414Z,73.12
2023-03-10T11:38:41.401Z,56.25
2023-03-10T11:39:41.398Z,45.00
2023-03-10T11:40:41.370Z,50.62
2023-03-10T11:41:41.357Z,45.00
2023-03-10T11:42:41.348Z,56.25
2023-03-10T11:43:41.344Z,56.25
2023-03-10T11:44:41.340Z,61.88
2023-03-10T11:45:41.330Z,73.12
2023-03-10T11:46:41.450Z,67.50
2023-03-10T11:47:42.066Z,61.88
2023-03-10T11:48:41.312Z,73.12
2023-03-10T11:49:41.291Z,90.00
2023-03-10T11:50:41.256Z,84.38
2023-03-10T11:51:41.251Z,95.62
2023-03-10T11:52:41.283Z,90.00
2023-03-10T11:53:41.251Z,112.50
2023-03-10T11:54:41.251Z,101.25
2023-03-10T11:55:41.210Z,118.12
2023-03-10T11:56:41.213Z,151.88
2023-03-10T11:57:41.193Z,168.75
2023-03-10T11:58:41.175Z,163.12
2023-03-10T11:59:41.183Z,140.62
2023-03-10T12:00:41.154Z,112.50
2023-03-10T12:01:41.139Z,90.00
2023-03-10T12:02:41.198Z,84.38
2023-03-10T12:03:41.154Z,106.88
2023-03-10T12:04:41.145Z,106.88
2023-03-10T12:05:41.231Z,95.62
2023-03-10T12:06:41.095Z,95.62
2023-03-10T12:07:41.086Z,90.00
2023-03-10T12:08:41.082Z,84.38
2023-03-10T12:09:41.076Z,67.50
2023-03-10T12:10:41.078Z,50.62
2023-03-10T12:11:41.040Z,78.75
2023-03-10T12:12:41.024Z,112.50
2023-03-10T12:13:41.036Z,90.00
2023-03-10T12:14:41.006Z,95.62
2023-03-10T12:15:41.055Z,95.62
2023-03-10T12:16:40.986Z,146.25
2023-03-10T12:17:40.974Z,157.50
2023-03-10T12:18:40.996Z,157.50
2023-03-10T12:19:40.973Z,146.25
2023-03-10T12:20:40.955Z,129.38
2023-03-10T12:21:40.944Z,118.12
2023-03-10T12:22:40.941Z,135.00
2023-03-10T12:23:40.909Z,135.00
2023-03-10T12:24:40.888Z,146.25
2023-03-10T12:25:40.905Z,151.88
2023-03-10T12:26:40.897Z,118.12
2023-03-10T12:27:40.865Z,118.12
2023-03-10T12:28:40.858Z,129.38
2023-03-10T12:29:40.864Z,163.12
2023-03-10T12:30:40.821Z,151.88
2023-03-10T12:31:40.946Z,112.50
2023-03-10T12:32:40.918Z,95.62
2023-03-10T12:33:40.807Z,84.38
2023-03-10T12:34:40.816Z,78.75
2023-03-10T12:35:40.803Z,84.38
2023-03-10T12:36:40.785Z,84.38
2023-03-10T12:37:40.774Z,78.75
2023-03-10T12:38:40.735Z,56.25
2023-03-10T12:39:40.748Z,61.88
2023-03-10T12:40:40.722Z,78.75
2023-03-10T12:41:40.726Z,73.12
2023-03-10T12:42:40.712Z,84.38
2023-03-10T12:43:40.699Z,95.62
2023-03-10T12:44:40.671Z,135.00
2023-03-10T12:45:40.662Z,140.62
2023-03-10T12:46:40.729Z,146.25
2023-03-10T12:47:40.679Z,202.50
2023-03-10T12:48:40.637Z,168.75
2023-03-10T12:49:40.638Z,129.38
2023-03-10T12:50:40.636Z,129.38
2023-03-10T12:51:40.613Z,151.88
2023-03-10T12:52:40.627Z,163.12
2023-03-10T12:53:40.592Z,185.62
2023-03-10T12:54:40.597Z,191.25
2023-03-10T12:55:40.556Z,219.38
2023-03-10T12:56:40.569Z,219.38
2023-03-10T12:57:40.545Z,225.00
2023-03-10T12:58:40.560Z,230.62
2023-03-10T12:59:40.533Z,213.75
2023-03-10T13:00:40.613Z,174.38